Абаканвагонмаш

Карта отелей и гостиниц, располагающихся рядом с аэропортом Абаканвагонмаш :

Абаканвагонмаш Республика Хакасия 53° 42' 45.7812" N, 91° 20' 42" E
Абаканвагонмаш Республика Хакасия 53° 42' 45.7812" N, 91° 20' 42" E
Код аэродрома ИКАО
HF97
Код аэродрома RU
ХФ97
Координаты
N53.71272° E091.34500°
Превышение над уровнем моря
258
Основная полоса
02/20
Курс магнитный
022,3/202,3
Длина основной ВПП
25
Ширина основной ВПП
25
Покрытие основной ВПП
Твёрдое
Освещение ВПП
Нет
Тип: 
Вертодром
Класс аэродрома: 
Принадлежность: 
ГА
Статус: 
Действующий
Сайт: 
E-mail аэродрома: 
Страна: 
Россия
Регион: 
Республика Хакасия
Город: 
Дополнительная информация: 
Оператор: нет данных.

Найти трансфер

С помощью этой формы Вы можете найти трансфер из аэропорта Абаканвагонмаш в город, аэропорт или вокзал:

Карта места

Javascript is required to view this map.

Погода в аэропортах:

Авиационная погода в Костанае

Регион: 
Погода METAR: 
UAUU 281200Z 04009G15MPS 9999 -RA BKN011 OVC033 04/03 Q1011 R33/290160 NOSIG RMK QFE742/0990
Время наблюдения
2021-09-28T12:00:00Z
Температура C
4.0
Точка росы
3.0
Направление ветра
40
Скорость ветра (узлы)
17
Метео видимость
6.21
Явления погоды
-RA
Условия полета
MVFR
Аэропорт подробнее: 

Авиационная погода в Братске

Регион: 
Погода METAR: 
UIBB 281200Z 31004MPS 280V340 9999 -SHSN SCT033CB M00/M00 Q1016 R30/290150 NOSIG RMK QFE719/0959
Время наблюдения
2021-09-28T12:00:00Z
Температура C
0.0
Точка росы
0.0
Направление ветра
310
Скорость ветра (узлы)
8
Метео видимость
6.21
Явления погоды
-SHSN
Условия полета
VFR
Аэропорт подробнее: 

Авиационная погода в Караганде

Регион: 
Погода METAR: 
UAKK 280940Z 26009G14MPS 9999 -SHRA SCT016CB 11/10 Q1009 R23/2///60 NOSIG RMK QFE711/0948
Время наблюдения
2021-09-28T09:40:00Z
Температура C
11.0
Точка росы
10.0
Направление ветра
260
Скорость ветра (узлы)
17
Метео видимость
6.21
Явления погоды
-SHRA
Условия полета
VFR
Аэропорт подробнее: 

Авиационная погода в Минеральные Воды

Регион: 
Погода METAR: 
URMM 281200Z 00000MPS 9999 -SHRA BKN023CB 11/09 Q1020 R12/290250 NOSIG RMK QFE737/0982
Время наблюдения
2021-09-28T12:00:00Z
Температура C
11.0
Точка росы
9.0
Направление ветра
0
Скорость ветра (узлы)
0
Метео видимость
6.21
Явления погоды
-SHRA
Условия полета
MVFR
Аэропорт подробнее: